MDT,Max TemperatureF,Mean TemperatureF,Min TemperatureF,Max Dew PointF,MeanDew PointF,Min DewpointF,Max Humidity, Mean Humidity, Min Humidity, Max Sea Level PressureIn, Mean Sea Level PressureIn, Min Sea Level PressureIn, Max VisibilityMiles, Mean VisibilityMiles, Min VisibilityMiles, Max Wind SpeedMPH, Mean Wind SpeedMPH, Max Gust SpeedMPH,PrecipitationIn, CloudCover, Events, WindDirDegrees
2014-3-1,5,3,0,-4,-9,-12,69,63,56,30.27,30.13,29.99,10,4,1,28,20,35,0.01,8,Snow,100
2014-3-2,16,11,5,13,5,-6,92,76,60,30.21,30.00,29.85,10,4,1,24,5,29,0.19,8,Snow,306
2014-3-3,41,28,14,35,22,11,96,87,78,30.05,29.94,29.78,10,7,2,12,3,16,0.06,7,Rain-Snow,305
2014-3-4,46,36,26,34,31,26,100,80,60,30.06,29.97,29.84,10,5,0,20,4,24,0.03,7,Fog-Rain,165
2014-3-5,48,41,34,37,34,33,92,79,65,30.03,29.89,29.73,10,10,10,20,9,22,0.05,8,Rain,127
2014-3-6,47,41,34,38,36,33,100,83,65,29.99,29.79,29.64,10,5,0,22,6,26,0.30,7,Fog-Rain,166
2014-3-7,45,39,33,36,33,31,100,83,65,30.35,30.13,29.97,10,6,0,14,4,20,T,8,Fog-Rain,319
2014-3-8,51,39,26,32,30,25,100,73,46,30.37,30.22,30.05,10,10,10,14,4,23,0.00,3,,27
2014-3-9,55,47,39,42,38,29,83,67,50,30.04,29.97,29.92,10,10,5,16,6,20,0.04,7,Rain,97
2014-3-10,44,40,36,39,37,33,100,91,82,30.14,29.90,29.82,10,5,0,23,6,28,0.37,8,Fog-Rain,298
2014-3-11,49,41,32,34,28,23,89,63,36,30.52,30.40,30.17,10,10,10,14,7,18,0.00,5,,319
2014-3-12,51,39,26,27,25,22,92,63,34,30.54,30.40,30.20,10,10,10,9,2,12,0.00,0,,250
2014-3-13,55,38,23,31,25,22,96,65,19,30.17,30.10,30.03,10,10,10,14,5,21,0.00,1,,304
2014-3-14,49,38,26,37,30,23,92,75,58,30.17,30.04,29.93,10,10,5,25,4,31,0.04,5,Rain,317
2014-3-15,50,40,29,30,27,24,82,61,39,30.45,30.38,30.18,10,10,10,16,5,20,0.00,3,,334
2014-3-16,63,43,23,32,23,16,92,55,17,30.36,30.09,29.73,10,10,10,25,5,35,0.00,0,,290
2014-3-17,49,42,34,34,28,20,85,60,34,30.09,29.76,29.53,10,10,10,32,11,40,0.02,7,Rain,324
2014-3-18,41,34,27,26,21,17,78,59,40,30.27,30.21,30.09,10,10,10,20,7,25,T,6,Snow,302
2014-3-19,49,37,24,32,22,18,88,61,34,30.25,30.11,29.95,10,10,10,17,4,21,T,4,,173
2014-3-20,42,35,27,33,22,15,96,67,37,30.29,30.09,29.89,10,10,5,28,10,37,0.02,6,Rain-Snow,297
2014-3-21,41,32,22,24,19,15,88,63,37,30.35,30.29,30.15,10,10,10,16,5,18,0.00,5,,331
2014-3-22,44,34,24,22,16,11,69,51,33,30.45,30.32,30.19,10,10,10,20,7,23,T,5,,110
2014-3-23,50,40,30,32,27,14,100,63,26,30.28,30.18,30.11,10,6,1,21,6,24,0.06,7,Snow,306
2014-3-24,52,37,22,25,20,17,81,54,27,30.40,30.29,30.16,10,10,10,8,2,10,0.00,4,,331
2014-3-25,56,41,25,27,24,21,85,56,26,30.14,29.83,29.60,10,10,10,13,4,15,0.00,1,,280
2014-3-26,53,43,33,35,29,24,89,62,35,29.61,29.58,29.53,10,10,10,18,6,21,T,6,Rain,311
2014-3-27,45,39,32,36,32,27,100,84,67,29.89,29.67,29.57,10,6,0,12,5,15,0.25,7,Fog-Rain-Snow,152
2014-3-28,52,43,34,39,33,25,92,64,36,30.03,29.93,29.85,10,10,7,17,7,21,0.04,7,Rain,148
2014-3-29,50,43,36,40,36,29,100,73,46,29.87,29.83,29.77,10,9,5,21,6,25,0.31,6,Rain,289
2014-3-30,49,41,32,35,32,26,100,71,42,30.01,29.88,29.80,10,10,10,23,5,28,0.01,6,Rain,142
2014-3-31,49,41,32,33,30,22,100,67,34,30.08,29.98,29.86,10,10,7,20,4,23,0.01,6,Rain,293